Terminal Aerodrome Forecast
Issued by NWS

Home | Current Version | Previous Version | Text Only | Print | Product List | Glossary On
Versions: 1 2 3 4 5 6 7 8 9 10 11 12 13 14
000
FTUS41 KBTV 030534
TAFMSS
TAF
KMSS 030534Z 0306/0406 VRB03KT P6SM SKC
     FM031500 15007KT P6SM SCT040 BKN080
     FM032000 13008KT 3SM -SHSN BR SCT015 OVC025
     FM032200 13010KT 1SM -SN BR SCT008 BKN015 OVC020
     FM040500 20011G21KT 3SM -SHSN BR SCT015 BKN025=

USA.gov is the U.S. government's official web portal to all federal, state and local government web resources and services.